sensor_id;sensor_type;location;lat;lon;timestamp;P1;durP1;ratioP1;P2;durP2;ratioP2
6207;SDS011;3137;51.550;7.060;2022-08-19T00:00:49;4.27;;;4.17;;
6207;SDS011;3137;51.550;7.060;2022-08-19T00:03:16;4.47;;;4.27;;
6207;SDS011;3137;51.550;7.060;2022-08-19T00:05:43;3.93;;;3.93;;
6207;SDS011;3137;51.550;7.060;2022-08-19T00:08:09;4.47;;;4.37;;
6207;SDS011;3137;51.550;7.060;2022-08-19T00:10:35;4.00;;;3.90;;
6207;SDS011;3137;51.550;7.060;2022-08-19T00:13:02;5.10;;;5.00;;
6207;SDS011;3137;51.550;7.060;2022-08-19T00:15:30;4.40;;;4.30;;
6207;SDS011;3137;51.550;7.060;2022-08-19T00:17:56;4.20;;;4.10;;
6207;SDS011;3137;51.550;7.060;2022-08-19T00:20:23;4.03;;;3.93;;
6207;SDS011;3137;51.550;7.060;2022-08-19T00:22:49;4.77;;;4.73;;
6207;SDS011;3137;51.550;7.060;2022-08-19T00:25:16;4.87;;;4.77;;
6207;SDS011;3137;51.550;7.060;2022-08-19T00:27:43;5.50;;;5.10;;
6207;SDS011;3137;51.550;7.060;2022-08-19T00:30:09;5.37;;;5.17;;
6207;SDS011;3137;51.550;7.060;2022-08-19T00:32:37;4.53;;;4.43;;
6207;SDS011;3137;51.550;7.060;2022-08-19T00:35:04;5.20;;;4.90;;
6207;SDS011;3137;51.550;7.060;2022-08-19T00:37:31;4.33;;;4.33;;
6207;SDS011;3137;51.550;7.060;2022-08-19T00:39:59;5.10;;;4.93;;
6207;SDS011;3137;51.550;7.060;2022-08-19T00:42:25;5.13;;;4.93;;
6207;SDS011;3137;51.550;7.060;2022-08-19T00:44:54;5.10;;;5.00;;
6207;SDS011;3137;51.550;7.060;2022-08-19T00:47:20;5.70;;;5.60;;
6207;SDS011;3137;51.550;7.060;2022-08-19T00:49:48;4.97;;;4.67;;
6207;SDS011;3137;51.550;7.060;2022-08-19T00:52:27;4.87;;;4.77;;
6207;SDS011;3137;51.550;7.060;2022-08-19T00:54:57;5.43;;;5.13;;
6207;SDS011;3137;51.550;7.060;2022-08-19T00:57:26;4.90;;;4.60;;
6207;SDS011;3137;51.550;7.060;2022-08-19T00:59:56;6.37;;;5.07;;
6207;SDS011;3137;51.550;7.060;2022-08-19T01:02:28;5.23;;;5.17;;
6207;SDS011;3137;51.550;7.060;2022-08-19T01:04:56;6.13;;;5.57;;
6207;SDS011;3137;51.550;7.060;2022-08-19T01:07:22;4.80;;;4.80;;
6207;SDS011;3137;51.550;7.060;2022-08-19T01:09:49;4.90;;;4.70;;
6207;SDS011;3137;51.550;7.060;2022-08-19T01:12:16;5.30;;;5.20;;
6207;SDS011;3137;51.550;7.060;2022-08-19T01:14:45;5.50;;;5.40;;
6207;SDS011;3137;51.550;7.060;2022-08-19T01:17:13;7.33;;;5.70;;
6207;SDS011;3137;51.550;7.060;2022-08-19T01:19:41;6.17;;;5.80;;
6207;SDS011;3137;51.550;7.060;2022-08-19T01:22:25;5.37;;;5.17;;
6207;SDS011;3137;51.550;7.060;2022-08-19T01:24:59;5.57;;;5.40;;
6207;SDS011;3137;51.550;7.060;2022-08-19T01:27:25;5.37;;;5.27;;
6207;SDS011;3137;51.550;7.060;2022-08-19T01:29:55;5.67;;;5.47;;
6207;SDS011;3137;51.550;7.060;2022-08-19T01:32:22;4.67;;;4.67;;
6207;SDS011;3137;51.550;7.060;2022-08-19T01:34:59;5.97;;;5.77;;
6207;SDS011;3137;51.550;7.060;2022-08-19T01:37:28;6.93;;;6.53;;
6207;SDS011;3137;51.550;7.060;2022-08-19T01:39:55;6.73;;;6.20;;
6207;SDS011;3137;51.550;7.060;2022-08-19T01:42:21;5.00;;;4.77;;
6207;SDS011;3137;51.550;7.060;2022-08-19T01:44:55;6.33;;;6.03;;
6207;SDS011;3137;51.550;7.060;2022-08-19T01:47:22;5.10;;;5.10;;
6207;SDS011;3137;51.550;7.060;2022-08-19T01:49:49;5.97;;;5.77;;
6207;SDS011;3137;51.550;7.060;2022-08-19T01:52:15;4.80;;;4.70;;
6207;SDS011;3137;51.550;7.060;2022-08-19T01:54:42;5.77;;;5.53;;
6207;SDS011;3137;51.550;7.060;2022-08-19T01:57:09;5.93;;;5.63;;
6207;SDS011;3137;51.550;7.060;2022-08-19T01:59:38;5.63;;;5.23;;
6207;SDS011;3137;51.550;7.060;2022-08-19T02:02:07;5.73;;;5.63;;
6207;SDS011;3137;51.550;7.060;2022-08-19T02:04:34;5.20;;;5.10;;
6207;SDS011;3137;51.550;7.060;2022-08-19T02:07:01;5.83;;;5.57;;
6207;SDS011;3137;51.550;7.060;2022-08-19T02:09:28;6.03;;;5.87;;
6207;SDS011;3137;51.550;7.060;2022-08-19T02:11:56;6.50;;;6.00;;
6207;SDS011;3137;51.550;7.060;2022-08-19T02:14:22;5.80;;;5.60;;
6207;SDS011;3137;51.550;7.060;2022-08-19T02:16:49;6.47;;;6.20;;
6207;SDS011;3137;51.550;7.060;2022-08-19T02:19:15;6.87;;;6.57;;
6207;SDS011;3137;51.550;7.060;2022-08-19T02:21:41;6.00;;;5.90;;
6207;SDS011;3137;51.550;7.060;2022-08-19T02:24:09;6.73;;;6.27;;
6207;SDS011;3137;51.550;7.060;2022-08-19T02:26:36;5.73;;;5.63;;
6207;SDS011;3137;51.550;7.060;2022-08-19T02:29:03;6.30;;;6.07;;
6207;SDS011;3137;51.550;7.060;2022-08-19T02:31:29;16.30;;;7.00;;
6207;SDS011;3137;51.550;7.060;2022-08-19T02:33:56;10.00;;;7.53;;
6207;SDS011;3137;51.550;7.060;2022-08-19T02:36:23;7.23;;;6.53;;
6207;SDS011;3137;51.550;7.060;2022-08-19T02:38:50;9.50;;;7.10;;
6207;SDS011;3137;51.550;7.060;2022-08-19T02:41:27;7.00;;;6.90;;
6207;SDS011;3137;51.550;7.060;2022-08-19T02:43:57;7.10;;;6.57;;
6207;SDS011;3137;51.550;7.060;2022-08-19T02:46:45;7.50;;;6.87;;
6207;SDS011;3137;51.550;7.060;2022-08-19T02:49:12;6.63;;;6.33;;
6207;SDS011;3137;51.550;7.060;2022-08-19T02:51:39;7.80;;;7.43;;
6207;SDS011;3137;51.550;7.060;2022-08-19T02:54:08;7.73;;;7.33;;
6207;SDS011;3137;51.550;7.060;2022-08-19T02:56:37;6.00;;;5.90;;
6207;SDS011;3137;51.550;7.060;2022-08-19T02:59:04;6.37;;;5.90;;
6207;SDS011;3137;51.550;7.060;2022-08-19T03:01:37;5.70;;;5.67;;
6207;SDS011;3137;51.550;7.060;2022-08-19T03:04:07;6.10;;;5.90;;
6207;SDS011;3137;51.550;7.060;2022-08-19T03:06:36;6.30;;;6.10;;
6207;SDS011;3137;51.550;7.060;2022-08-19T03:09:03;6.90;;;6.77;;
6207;SDS011;3137;51.550;7.060;2022-08-19T03:11:30;6.70;;;6.40;;
6207;SDS011;3137;51.550;7.060;2022-08-19T03:13:58;6.50;;;6.37;;
6207;SDS011;3137;51.550;7.060;2022-08-19T03:16:27;6.70;;;6.50;;
6207;SDS011;3137;51.550;7.060;2022-08-19T03:18:58;6.27;;;6.17;;
6207;SDS011;3137;51.550;7.060;2022-08-19T03:21:30;6.77;;;6.67;;
6207;SDS011;3137;51.550;7.060;2022-08-19T03:23:59;6.27;;;5.90;;
6207;SDS011;3137;51.550;7.060;2022-08-19T03:26:28;6.70;;;6.60;;
6207;SDS011;3137;51.550;7.060;2022-08-19T03:28:56;6.70;;;6.40;;
6207;SDS011;3137;51.550;7.060;2022-08-19T03:31:24;7.43;;;7.10;;
6207;SDS011;3137;51.550;7.060;2022-08-19T03:34:15;7.10;;;6.90;;
6207;SDS011;3137;51.550;7.060;2022-08-19T03:36:44;7.37;;;7.13;;
6207;SDS011;3137;51.550;7.060;2022-08-19T03:39:11;7.53;;;7.13;;
6207;SDS011;3137;51.550;7.060;2022-08-19T03:41:39;7.10;;;6.90;;
6207;SDS011;3137;51.550;7.060;2022-08-19T03:44:10;6.97;;;6.67;;
6207;SDS011;3137;51.550;7.060;2022-08-19T03:46:44;7.90;;;7.60;;
6207;SDS011;3137;51.550;7.060;2022-08-19T03:49:10;6.67;;;6.47;;
6207;SDS011;3137;51.550;7.060;2022-08-19T03:51:40;7.27;;;7.07;;
6207;SDS011;3137;51.550;7.060;2022-08-19T03:54:07;7.83;;;7.63;;
6207;SDS011;3137;51.550;7.060;2022-08-19T03:56:36;9.97;;;9.37;;
6207;SDS011;3137;51.550;7.060;2022-08-19T03:59:05;10.33;;;9.70;;
6207;SDS011;3137;51.550;7.060;2022-08-19T04:01:32;10.90;;;10.27;;
6207;SDS011;3137;51.550;7.060;2022-08-19T04:04:00;9.77;;;9.27;;
6207;SDS011;3137;51.550;7.060;2022-08-19T04:06:31;8.47;;;8.13;;
6207;SDS011;3137;51.550;7.060;2022-08-19T04:08:58;21.13;;;8.77;;
6207;SDS011;3137;51.550;7.060;2022-08-19T04:11:29;16.00;;;8.70;;
6207;SDS011;3137;51.550;7.060;2022-08-19T04:14:10;23.30;;;8.87;;
6207;SDS011;3137;51.550;7.060;2022-08-19T04:16:38;23.03;;;9.67;;
6207;SDS011;3137;51.550;7.060;2022-08-19T04:19:05;19.00;;;9.23;;
6207;SDS011;3137;51.550;7.060;2022-08-19T04:21:33;9.57;;;7.83;;
6207;SDS011;3137;51.550;7.060;2022-08-19T04:23:59;7.70;;;7.10;;
6207;SDS011;3137;51.550;7.060;2022-08-19T04:26:27;14.93;;;7.90;;
6207;SDS011;3137;51.550;7.060;2022-08-19T04:28:55;12.47;;;8.53;;
6207;SDS011;3137;51.550;7.060;2022-08-19T04:31:22;21.30;;;8.83;;
6207;SDS011;3137;51.550;7.060;2022-08-19T04:34:01;12.03;;;9.13;;
6207;SDS011;3137;51.550;7.060;2022-08-19T04:36:31;21.13;;;10.60;;
6207;SDS011;3137;51.550;7.060;2022-08-19T04:38:59;11.33;;;9.17;;
6207;SDS011;3137;51.550;7.060;2022-08-19T04:41:26;8.03;;;7.47;;
6207;SDS011;3137;51.550;7.060;2022-08-19T04:44:11;7.70;;;7.33;;
6207;SDS011;3137;51.550;7.060;2022-08-19T04:46:38;9.70;;;7.90;;
6207;SDS011;3137;51.550;7.060;2022-08-19T04:49:18;10.63;;;9.83;;
6207;SDS011;3137;51.550;7.060;2022-08-19T04:51:47;16.03;;;9.10;;
6207;SDS011;3137;51.550;7.060;2022-08-19T04:54:15;10.00;;;9.07;;
6207;SDS011;3137;51.550;7.060;2022-08-19T04:57:03;8.73;;;7.97;;
6207;SDS011;3137;51.550;7.060;2022-08-19T04:59:32;9.47;;;8.73;;
6207;SDS011;3137;51.550;7.060;2022-08-19T05:01:59;10.70;;;9.87;;
6207;SDS011;3137;51.550;7.060;2022-08-19T05:04:25;12.43;;;10.20;;
6207;SDS011;3137;51.550;7.060;2022-08-19T05:06:52;8.67;;;8.30;;
6207;SDS011;3137;51.550;7.060;2022-08-19T05:09:24;9.37;;;8.57;;
6207;SDS011;3137;51.550;7.060;2022-08-19T05:11:51;8.33;;;7.67;;
6207;SDS011;3137;51.550;7.060;2022-08-19T05:14:18;9.57;;;8.63;;
6207;SDS011;3137;51.550;7.060;2022-08-19T05:16:47;9.60;;;9.00;;
6207;SDS011;3137;51.550;7.060;2022-08-19T05:19:13;10.60;;;9.67;;
6207;SDS011;3137;51.550;7.060;2022-08-19T05:21:59;9.73;;;9.13;;
6207;SDS011;3137;51.550;7.060;2022-08-19T05:24:45;9.90;;;9.10;;
6207;SDS011;3137;51.550;7.060;2022-08-19T05:27:31;9.60;;;9.07;;
6207;SDS011;3137;51.550;7.060;2022-08-19T05:29:58;9.37;;;8.97;;
6207;SDS011;3137;51.550;7.060;2022-08-19T05:32:25;12.07;;;10.77;;
6207;SDS011;3137;51.550;7.060;2022-08-19T05:34:52;9.73;;;9.00;;
6207;SDS011;3137;51.550;7.060;2022-08-19T05:37:18;11.80;;;9.83;;
6207;SDS011;3137;51.550;7.060;2022-08-19T05:39:45;18.43;;;10.53;;
6207;SDS011;3137;51.550;7.060;2022-08-19T05:42:16;10.77;;;9.90;;
6207;SDS011;3137;51.550;7.060;2022-08-19T05:44:43;9.37;;;9.00;;
6207;SDS011;3137;51.550;7.060;2022-08-19T05:47:15;17.33;;;11.03;;
6207;SDS011;3137;51.550;7.060;2022-08-19T05:49:42;11.13;;;10.37;;
6207;SDS011;3137;51.550;7.060;2022-08-19T05:52:09;10.40;;;9.57;;
6207;SDS011;3137;51.550;7.060;2022-08-19T05:54:37;11.10;;;10.30;;
6207;SDS011;3137;51.550;7.060;2022-08-19T05:57:06;13.27;;;11.60;;
6207;SDS011;3137;51.550;7.060;2022-08-19T05:59:36;13.70;;;12.27;;
6207;SDS011;3137;51.550;7.060;2022-08-19T06:02:05;25.83;;;14.93;;
6207;SDS011;3137;51.550;7.060;2022-08-19T06:04:32;19.27;;;14.00;;
6207;SDS011;3137;51.550;7.060;2022-08-19T06:06:59;17.33;;;15.63;;
6207;SDS011;3137;51.550;7.060;2022-08-19T06:09:38;19.10;;;14.90;;
6207;SDS011;3137;51.550;7.060;2022-08-19T06:12:04;17.77;;;14.93;;
6207;SDS011;3137;51.550;7.060;2022-08-19T06:14:32;18.40;;;14.53;;
6207;SDS011;3137;51.550;7.060;2022-08-19T06:17:05;16.43;;;14.93;;
6207;SDS011;3137;51.550;7.060;2022-08-19T06:19:32;20.07;;;15.17;;
6207;SDS011;3137;51.550;7.060;2022-08-19T06:22:06;16.17;;;14.73;;
6207;SDS011;3137;51.550;7.060;2022-08-19T06:24:32;16.60;;;14.83;;
6207;SDS011;3137;51.550;7.060;2022-08-19T06:26:59;15.17;;;13.70;;
6207;SDS011;3137;51.550;7.060;2022-08-19T06:29:27;18.20;;;13.90;;
6207;SDS011;3137;51.550;7.060;2022-08-19T06:31:55;19.93;;;14.40;;
6207;SDS011;3137;51.550;7.060;2022-08-19T06:34:22;23.97;;;15.37;;
6207;SDS011;3137;51.550;7.060;2022-08-19T06:36:50;23.83;;;16.80;;
6207;SDS011;3137;51.550;7.060;2022-08-19T06:39:18;30.80;;;16.83;;
6207;SDS011;3137;51.550;7.060;2022-08-19T06:41:48;25.70;;;17.10;;
6207;SDS011;3137;51.550;7.060;2022-08-19T06:44:20;20.33;;;17.37;;
6207;SDS011;3137;51.550;7.060;2022-08-19T06:46:47;32.27;;;17.27;;
6207;SDS011;3137;51.550;7.060;2022-08-19T06:49:20;24.27;;;16.23;;
6207;SDS011;3137;51.550;7.060;2022-08-19T06:51:48;25.23;;;15.73;;
6207;SDS011;3137;51.550;7.060;2022-08-19T06:54:17;18.83;;;15.87;;
6207;SDS011;3137;51.550;7.060;2022-08-19T06:56:45;26.40;;;16.13;;
6207;SDS011;3137;51.550;7.060;2022-08-19T06:59:14;32.23;;;16.43;;
6207;SDS011;3137;51.550;7.060;2022-08-19T07:01:42;19.50;;;16.70;;
6207;SDS011;3137;51.550;7.060;2022-08-19T07:04:12;46.80;;;16.77;;
6207;SDS011;3137;51.550;7.060;2022-08-19T07:06:38;24.93;;;16.63;;
6207;SDS011;3137;51.550;7.060;2022-08-19T07:09:10;29.53;;;16.83;;
6207;SDS011;3137;51.550;7.060;2022-08-19T07:11:37;25.37;;;17.43;;
6207;SDS011;3137;51.550;7.060;2022-08-19T07:14:03;64.43;;;19.27;;
6207;SDS011;3137;51.550;7.060;2022-08-19T07:16:44;29.07;;;16.10;;
6207;SDS011;3137;51.550;7.060;2022-08-19T07:19:12;24.00;;;17.20;;
6207;SDS011;3137;51.550;7.060;2022-08-19T07:21:41;22.17;;;15.97;;
6207;SDS011;3137;51.550;7.060;2022-08-19T07:24:08;18.93;;;15.30;;
6207;SDS011;3137;51.550;7.060;2022-08-19T07:26:37;22.03;;;15.03;;
6207;SDS011;3137;51.550;7.060;2022-08-19T07:29:07;22.53;;;16.27;;
6207;SDS011;3137;51.550;7.060;2022-08-19T07:31:34;16.67;;;14.90;;
6207;SDS011;3137;51.550;7.060;2022-08-19T07:34:03;18.07;;;14.40;;
6207;SDS011;3137;51.550;7.060;2022-08-19T07:36:33;18.80;;;14.30;;
6207;SDS011;3137;51.550;7.060;2022-08-19T07:39:00;15.63;;;13.80;;
6207;SDS011;3137;51.550;7.060;2022-08-19T07:41:28;17.93;;;13.90;;
6207;SDS011;3137;51.550;7.060;2022-08-19T07:43:58;15.20;;;13.57;;
6207;SDS011;3137;51.550;7.060;2022-08-19T07:46:28;19.13;;;12.80;;
6207;SDS011;3137;51.550;7.060;2022-08-19T07:48:56;14.80;;;12.63;;
6207;SDS011;3137;51.550;7.060;2022-08-19T07:51:22;17.87;;;13.60;;
6207;SDS011;3137;51.550;7.060;2022-08-19T07:54:02;24.00;;;12.77;;
6207;SDS011;3137;51.550;7.060;2022-08-19T07:56:29;20.50;;;13.30;;
6207;SDS011;3137;51.550;7.060;2022-08-19T07:58:55;20.17;;;13.87;;
6207;SDS011;3137;51.550;7.060;2022-08-19T08:01:27;16.00;;;13.43;;
6207;SDS011;3137;51.550;7.060;2022-08-19T08:03:55;19.20;;;13.80;;
6207;SDS011;3137;51.550;7.060;2022-08-19T08:06:41;19.77;;;14.97;;
6207;SDS011;3137;51.550;7.060;2022-08-19T08:09:27;15.17;;;13.53;;
6207;SDS011;3137;51.550;7.060;2022-08-19T08:11:59;16.40;;;14.23;;
6207;SDS011;3137;51.550;7.060;2022-08-19T08:14:38;83.80;;;18.37;;
6207;SDS011;3137;51.550;7.060;2022-08-19T08:17:09;19.47;;;15.43;;
6207;SDS011;3137;51.550;7.060;2022-08-19T08:19:37;18.10;;;15.13;;
6207;SDS011;3137;51.550;7.060;2022-08-19T08:22:03;17.90;;;14.73;;
6207;SDS011;3137;51.550;7.060;2022-08-19T08:24:32;17.47;;;15.83;;
6207;SDS011;3137;51.550;7.060;2022-08-19T08:27:00;23.43;;;16.47;;
6207;SDS011;3137;51.550;7.060;2022-08-19T08:29:27;18.87;;;14.67;;
6207;SDS011;3137;51.550;7.060;2022-08-19T08:32:00;17.97;;;15.27;;
6207;SDS011;3137;51.550;7.060;2022-08-19T08:34:27;24.77;;;16.50;;
6207;SDS011;3137;51.550;7.060;2022-08-19T08:36:53;19.50;;;15.70;;
6207;SDS011;3137;51.550;7.060;2022-08-19T08:39:20;14.90;;;13.37;;
6207;SDS011;3137;51.550;7.060;2022-08-19T08:47:03;15.27;;;13.47;;
6207;SDS011;3137;51.550;7.060;2022-08-19T08:52:19;17.60;;;15.80;;
6207;SDS011;3137;51.550;7.060;2022-08-19T08:54:57;17.40;;;15.77;;
6207;SDS011;3137;51.550;7.060;2022-08-19T08:59:51;15.17;;;13.90;;
6207;SDS011;3137;51.550;7.060;2022-08-19T09:02:23;15.03;;;13.63;;
6207;SDS011;3137;51.550;7.060;2022-08-19T09:04:49;16.13;;;14.43;;
6207;SDS011;3137;51.550;7.060;2022-08-19T09:10:49;13.80;;;12.80;;
6207;SDS011;3137;51.550;7.060;2022-08-19T09:15:48;15.27;;;13.67;;
6207;SDS011;3137;51.550;7.060;2022-08-19T09:18:19;14.90;;;13.40;;
6207;SDS011;3137;51.550;7.060;2022-08-19T09:20:45;14.53;;;13.33;;
6207;SDS011;3137;51.550;7.060;2022-08-19T09:23:13;14.43;;;13.10;;
6207;SDS011;3137;51.550;7.060;2022-08-19T09:25:40;13.63;;;12.53;;
6207;SDS011;3137;51.550;7.060;2022-08-19T09:28:07;16.17;;;12.23;;
6207;SDS011;3137;51.550;7.060;2022-08-19T09:30:52;12.50;;;11.43;;
6207;SDS011;3137;51.550;7.060;2022-08-19T09:33:19;13.10;;;12.17;;
6207;SDS011;3137;51.550;7.060;2022-08-19T09:35:45;13.37;;;12.33;;
6207;SDS011;3137;51.550;7.060;2022-08-19T09:38:19;16.67;;;13.17;;
6207;SDS011;3137;51.550;7.060;2022-08-19T09:40:46;14.67;;;13.47;;
6207;SDS011;3137;51.550;7.060;2022-08-19T09:43:12;13.70;;;12.57;;
6207;SDS011;3137;51.550;7.060;2022-08-19T09:45:39;18.10;;;15.17;;
6207;SDS011;3137;51.550;7.060;2022-08-19T09:48:05;16.50;;;14.77;;
6207;SDS011;3137;51.550;7.060;2022-08-19T09:50:32;14.60;;;13.40;;
6207;SDS011;3137;51.550;7.060;2022-08-19T09:53:01;14.50;;;13.37;;
6207;SDS011;3137;51.550;7.060;2022-08-19T09:55:27;15.83;;;14.13;;
6207;SDS011;3137;51.550;7.060;2022-08-19T09:57:58;15.43;;;14.23;;
6207;SDS011;3137;51.550;7.060;2022-08-19T10:00:26;13.63;;;12.53;;
6207;SDS011;3137;51.550;7.060;2022-08-19T10:02:53;14.10;;;13.00;;
6207;SDS011;3137;51.550;7.060;2022-08-19T10:05:20;13.57;;;12.63;;
6207;SDS011;3137;51.550;7.060;2022-08-19T10:08:08;13.50;;;12.33;;
6207;SDS011;3137;51.550;7.060;2022-08-19T10:10:38;15.93;;;14.40;;
6207;SDS011;3137;51.550;7.060;2022-08-19T10:13:08;14.23;;;13.07;;
6207;SDS011;3137;51.550;7.060;2022-08-19T10:15:34;13.60;;;12.70;;
6207;SDS011;3137;51.550;7.060;2022-08-19T10:18:14;18.63;;;11.23;;
6207;SDS011;3137;51.550;7.060;2022-08-19T10:20:45;13.53;;;12.53;;
6207;SDS011;3137;51.550;7.060;2022-08-19T10:23:17;14.13;;;13.10;;
6207;SDS011;3137;51.550;7.060;2022-08-19T10:25:46;14.10;;;12.70;;
6207;SDS011;3137;51.550;7.060;2022-08-19T10:28:13;13.90;;;12.77;;
6207;SDS011;3137;51.550;7.060;2022-08-19T10:30:40;18.27;;;13.10;;
6207;SDS011;3137;51.550;7.060;2022-08-19T10:33:08;12.40;;;11.27;;
6207;SDS011;3137;51.550;7.060;2022-08-19T10:35:36;13.27;;;12.20;;
6207;SDS011;3137;51.550;7.060;2022-08-19T10:38:21;14.30;;;12.83;;
6207;SDS011;3137;51.550;7.060;2022-08-19T10:40:57;15.17;;;13.67;;
6207;SDS011;3137;51.550;7.060;2022-08-19T10:43:32;13.77;;;12.73;;
6207;SDS011;3137;51.550;7.060;2022-08-19T10:46:04;13.90;;;12.93;;
6207;SDS011;3137;51.550;7.060;2022-08-19T10:48:40;16.33;;;13.80;;
6207;SDS011;3137;51.550;7.060;2022-08-19T10:51:07;15.10;;;13.33;;
6207;SDS011;3137;51.550;7.060;2022-08-19T10:53:52;14.97;;;13.47;;
6207;SDS011;3137;51.550;7.060;2022-08-19T10:56:19;12.93;;;11.90;;
6207;SDS011;3137;51.550;7.060;2022-08-19T10:59:04;13.67;;;12.67;;
6207;SDS011;3137;51.550;7.060;2022-08-19T11:01:30;15.07;;;13.80;;
6207;SDS011;3137;51.550;7.060;2022-08-19T11:03:59;14.87;;;13.70;;
6207;SDS011;3137;51.550;7.060;2022-08-19T11:06:27;14.90;;;13.43;;
6207;SDS011;3137;51.550;7.060;2022-08-19T11:08:54;18.00;;;16.10;;
6207;SDS011;3137;51.550;7.060;2022-08-19T11:11:21;15.65;;;14.48;;
6207;SDS011;3137;51.550;7.060;2022-08-19T11:13:48;15.37;;;13.93;;
6207;SDS011;3137;51.550;7.060;2022-08-19T11:16:17;16.65;;;15.32;;
6207;SDS011;3137;51.550;7.060;2022-08-19T11:18:45;16.57;;;15.27;;
6207;SDS011;3137;51.550;7.060;2022-08-19T11:21:14;17.10;;;15.80;;
6207;SDS011;3137;51.550;7.060;2022-08-19T11:23:45;16.43;;;15.03;;
6207;SDS011;3137;51.550;7.060;2022-08-19T11:26:13;16.13;;;14.87;;
6207;SDS011;3137;51.550;7.060;2022-08-19T11:28:41;17.47;;;15.93;;
6207;SDS011;3137;51.550;7.060;2022-08-19T11:31:09;21.57;;;15.97;;
6207;SDS011;3137;51.550;7.060;2022-08-19T11:33:38;18.23;;;16.50;;
6207;SDS011;3137;51.550;7.060;2022-08-19T11:36:05;16.20;;;14.80;;
6207;SDS011;3137;51.550;7.060;2022-08-19T11:38:31;17.47;;;15.73;;
6207;SDS011;3137;51.550;7.060;2022-08-19T11:40:58;16.33;;;14.73;;
6207;SDS011;3137;51.550;7.060;2022-08-19T11:43:25;19.27;;;16.85;;
6207;SDS011;3137;51.550;7.060;2022-08-19T11:45:53;15.88;;;14.68;;
6207;SDS011;3137;51.550;7.060;2022-08-19T11:48:20;17.98;;;16.23;;
6207;SDS011;3137;51.550;7.060;2022-08-19T11:50:49;16.10;;;14.88;;
6207;SDS011;3137;51.550;7.060;2022-08-19T11:53:16;17.55;;;16.25;;
6207;SDS011;3137;51.550;7.060;2022-08-19T11:55:49;20.02;;;18.30;;
6207;SDS011;3137;51.550;7.060;2022-08-19T11:58:22;17.73;;;16.15;;
6207;SDS011;3137;51.550;7.060;2022-08-19T12:00:48;16.30;;;15.07;;
6207;SDS011;3137;51.550;7.060;2022-08-19T12:03:15;15.43;;;14.32;;
6207;SDS011;3137;51.550;7.060;2022-08-19T12:05:42;16.15;;;14.85;;
6207;SDS011;3137;51.550;7.060;2022-08-19T12:08:08;16.73;;;15.25;;
6207;SDS011;3137;51.550;7.060;2022-08-19T12:10:35;14.65;;;13.45;;
6207;SDS011;3137;51.550;7.060;2022-08-19T12:13:01;13.95;;;12.95;;
6207;SDS011;3137;51.550;7.060;2022-08-19T12:15:28;12.15;;;11.48;;
6207;SDS011;3137;51.550;7.060;2022-08-19T12:18:02;11.52;;;10.93;;
6207;SDS011;3137;51.550;7.060;2022-08-19T12:20:30;12.52;;;11.82;;
6207;SDS011;3137;51.550;7.060;2022-08-19T12:23:00;12.38;;;11.48;;
6207;SDS011;3137;51.550;7.060;2022-08-19T12:25:27;14.38;;;12.73;;
6207;SDS011;3137;51.550;7.060;2022-08-19T12:27:53;11.40;;;10.90;;
6207;SDS011;3137;51.550;7.060;2022-08-19T12:30:23;11.82;;;11.23;;
6207;SDS011;3137;51.550;7.060;2022-08-19T12:32:49;12.20;;;11.13;;
6207;SDS011;3137;51.550;7.060;2022-08-19T12:35:17;20.95;;;11.68;;
6207;SDS011;3137;51.550;7.060;2022-08-19T12:37:47;12.65;;;11.75;;
6207;SDS011;3137;51.550;7.060;2022-08-19T12:40:22;11.25;;;10.80;;
6207;SDS011;3137;51.550;7.060;2022-08-19T12:42:51;10.90;;;10.32;;
6207;SDS011;3137;51.550;7.060;2022-08-19T12:45:18;9.00;;;8.70;;
6207;SDS011;3137;51.550;7.060;2022-08-19T12:47:46;8.57;;;8.05;;
6207;SDS011;3137;51.550;7.060;2022-08-19T12:50:14;10.57;;;10.10;;
6207;SDS011;3137;51.550;7.060;2022-08-19T12:52:41;9.10;;;8.63;;
6207;SDS011;3137;51.550;7.060;2022-08-19T12:55:08;9.38;;;9.10;;
6207;SDS011;3137;51.550;7.060;2022-08-19T12:57:35;9.18;;;8.63;;
6207;SDS011;3137;51.550;7.060;2022-08-19T13:00:23;8.23;;;8.00;;
6207;SDS011;3137;51.550;7.060;2022-08-19T13:02:49;7.35;;;6.80;;
6207;SDS011;3137;51.550;7.060;2022-08-19T13:05:19;7.80;;;7.38;;
6207;SDS011;3137;51.550;7.060;2022-08-19T13:07:53;6.88;;;6.15;;
6207;SDS011;3137;51.550;7.060;2022-08-19T13:10:22;6.22;;;5.97;;
6207;SDS011;3137;51.550;7.060;2022-08-19T13:12:51;6.47;;;6.32;;
6207;SDS011;3137;51.550;7.060;2022-08-19T13:15:18;6.57;;;6.22;;
6207;SDS011;3137;51.550;7.060;2022-08-19T13:17:50;6.97;;;6.50;;
6207;SDS011;3137;51.550;7.060;2022-08-19T13:20:17;7.82;;;7.60;;
6207;SDS011;3137;51.550;7.060;2022-08-19T13:22:46;6.80;;;6.32;;
6207;SDS011;3137;51.550;7.060;2022-08-19T13:25:14;6.75;;;6.55;;
6207;SDS011;3137;51.550;7.060;2022-08-19T13:27:43;6.03;;;6.03;;
6207;SDS011;3137;51.550;7.060;2022-08-19T13:30:10;5.78;;;5.63;;
6207;SDS011;3137;51.550;7.060;2022-08-19T13:32:56;5.68;;;5.68;;
6207;SDS011;3137;51.550;7.060;2022-08-19T13:35:42;5.25;;;5.25;;
6207;SDS011;3137;51.550;7.060;2022-08-19T13:38:09;5.47;;;5.15;;
6207;SDS011;3137;51.550;7.060;2022-08-19T13:40:37;6.07;;;5.70;;
6207;SDS011;3137;51.550;7.060;2022-08-19T13:43:06;5.75;;;5.75;;
6207;SDS011;3137;51.550;7.060;2022-08-19T13:45:48;5.18;;;5.07;;
6207;SDS011;3137;51.550;7.060;2022-08-19T13:48:16;5.57;;;5.47;;
6207;SDS011;3137;51.550;7.060;2022-08-19T13:50:44;5.68;;;5.40;;
6207;SDS011;3137;51.550;7.060;2022-08-19T13:53:12;5.50;;;5.40;;
6207;SDS011;3137;51.550;7.060;2022-08-19T13:55:40;9.77;;;5.20;;
6207;SDS011;3137;51.550;7.060;2022-08-19T13:58:08;5.68;;;5.40;;
6207;SDS011;3137;51.550;7.060;2022-08-19T14:00:36;7.13;;;6.13;;
6207;SDS011;3137;51.550;7.060;2022-08-19T14:03:03;5.25;;;5.13;;
6207;SDS011;3137;51.550;7.060;2022-08-19T14:05:34;5.35;;;5.25;;
6207;SDS011;3137;51.550;7.060;2022-08-19T14:08:01;5.43;;;5.30;;
6207;SDS011;3137;51.550;7.060;2022-08-19T14:10:28;5.10;;;4.90;;
6207;SDS011;3137;51.550;7.060;2022-08-19T14:12:57;5.50;;;5.50;;
6207;SDS011;3137;51.550;7.060;2022-08-19T14:15:26;4.63;;;4.63;;
6207;SDS011;3137;51.550;7.060;2022-08-19T14:17:53;6.15;;;5.78;;
6207;SDS011;3137;51.550;7.060;2022-08-19T14:20:20;6.00;;;5.90;;
6207;SDS011;3137;51.550;7.060;2022-08-19T14:22:51;5.85;;;5.75;;
6207;SDS011;3137;51.550;7.060;2022-08-19T14:25:20;5.97;;;5.88;;
6207;SDS011;3137;51.550;7.060;2022-08-19T14:27:49;6.10;;;6.00;;
6207;SDS011;3137;51.550;7.060;2022-08-19T14:30:17;5.55;;;5.47;;
6207;SDS011;3137;51.550;7.060;2022-08-19T14:32:46;6.13;;;5.93;;
6207;SDS011;3137;51.550;7.060;2022-08-19T14:35:13;5.43;;;5.32;;
6207;SDS011;3137;51.550;7.060;2022-08-19T14:37:41;5.65;;;5.55;;
6207;SDS011;3137;51.550;7.060;2022-08-19T14:40:12;6.68;;;6.55;;
6207;SDS011;3137;51.550;7.060;2022-08-19T14:42:40;6.55;;;6.45;;
6207;SDS011;3137;51.550;7.060;2022-08-19T14:45:08;6.85;;;6.63;;
6207;SDS011;3137;51.550;7.060;2022-08-19T14:47:35;6.53;;;6.43;;
6207;SDS011;3137;51.550;7.060;2022-08-19T14:50:06;7.50;;;7.15;;
6207;SDS011;3137;51.550;7.060;2022-08-19T14:52:35;7.50;;;7.22;;
6207;SDS011;3137;51.550;7.060;2022-08-19T14:55:03;8.05;;;7.75;;
6207;SDS011;3137;51.550;7.060;2022-08-19T14:57:33;8.10;;;7.72;;
6207;SDS011;3137;51.550;7.060;2022-08-19T14:59:59;8.55;;;8.32;;
6207;SDS011;3137;51.550;7.060;2022-08-19T15:02:26;9.00;;;8.35;;
6207;SDS011;3137;51.550;7.060;2022-08-19T15:05:00;8.63;;;8.32;;
6207;SDS011;3137;51.550;7.060;2022-08-19T15:07:26;8.77;;;8.57;;
6207;SDS011;3137;51.550;7.060;2022-08-19T15:09:55;9.25;;;8.95;;
6207;SDS011;3137;51.550;7.060;2022-08-19T15:12:21;8.57;;;8.20;;
6207;SDS011;3137;51.550;7.060;2022-08-19T15:14:48;8.88;;;8.60;;
6207;SDS011;3137;51.550;7.060;2022-08-19T15:17:21;9.05;;;8.50;;
6207;SDS011;3137;51.550;7.060;2022-08-19T15:20:08;8.25;;;8.05;;
6207;SDS011;3137;51.550;7.060;2022-08-19T15:22:36;8.35;;;8.05;;
6207;SDS011;3137;51.550;7.060;2022-08-19T15:25:03;7.18;;;7.07;;
6207;SDS011;3137;51.550;7.060;2022-08-19T15:27:32;8.05;;;7.65;;
6207;SDS011;3137;51.550;7.060;2022-08-19T15:30:00;8.93;;;8.18;;
6207;SDS011;3137;51.550;7.060;2022-08-19T15:32:27;8.15;;;7.47;;